createdAt,value
2022-10-09T00:01:24.199Z,7.90
2022-10-09T00:03:54.687Z,7.90
2022-10-09T00:06:29.302Z,7.90
2022-10-09T00:08:56.717Z,7.80
2022-10-09T00:11:27.215Z,7.90
2022-10-09T00:13:56.105Z,7.90
2022-10-09T00:16:24.327Z,7.90
2022-10-09T00:18:52.200Z,7.80
2022-10-09T00:21:28.391Z,7.80
2022-10-09T00:23:59.295Z,7.80
2022-10-09T00:26:27.109Z,7.80
2022-10-09T00:28:54.315Z,7.80
2022-10-09T00:31:21.965Z,7.70
2022-10-09T00:33:48.803Z,7.80
2022-10-09T00:36:20.672Z,7.80
2022-10-09T00:38:48.360Z,7.80
2022-10-09T00:41:20.254Z,7.80
2022-10-09T00:43:54.171Z,7.70
2022-10-09T00:46:33.609Z,7.70
2022-10-09T00:49:20.766Z,7.60
2022-10-09T00:51:50.817Z,7.70
2022-10-09T00:54:24.026Z,7.70
2022-10-09T00:56:51.647Z,7.60
2022-10-09T00:59:19.662Z,7.70
2022-10-09T01:01:46.802Z,7.70
2022-10-09T01:04:13.792Z,7.70
2022-10-09T01:07:11.531Z,7.70
2022-10-09T01:09:54.700Z,7.70
2022-10-09T01:12:47.395Z,7.60
2022-10-09T01:15:34.897Z,7.70
2022-10-09T01:18:16.784Z,7.60
2022-10-09T01:20:56.672Z,7.60
2022-10-09T01:23:35.459Z,7.60
2022-10-09T01:26:32.727Z,7.60
2022-10-09T01:29:06.726Z,7.60
2022-10-09T01:31:41.730Z,7.60
2022-10-09T01:34:12.780Z,7.50
2022-10-09T01:36:43.190Z,7.50
2022-10-09T01:39:16.808Z,7.50
2022-10-09T01:41:45.181Z,7.40
2022-10-09T01:44:17.739Z,7.40
2022-10-09T01:46:44.996Z,7.50
2022-10-09T01:49:33.839Z,7.40
2022-10-09T01:52:21.283Z,7.40
2022-10-09T01:55:19.258Z,7.40
2022-10-09T01:58:21.785Z,7.40
2022-10-09T02:01:24.243Z,7.30
2022-10-09T02:03:54.562Z,7.30
2022-10-09T02:06:21.780Z,7.40
2022-10-09T02:08:55.154Z,7.30
2022-10-09T02:11:26.075Z,7.30
2022-10-09T02:13:55.852Z,7.30
2022-10-09T02:16:34.842Z,7.20
2022-10-09T02:19:33.954Z,7.20
2022-10-09T02:22:13.008Z,7.20
2022-10-09T02:24:42.159Z,7.10
2022-10-09T02:27:10.945Z,7.10
2022-10-09T02:29:43.650Z,7.10
2022-10-09T02:32:11.156Z,7.10
2022-10-09T02:34:38.994Z,7.10
2022-10-09T02:37:06.605Z,7.10
2022-10-09T02:39:33.513Z,7.10
2022-10-09T02:42:00.497Z,7.00
2022-10-09T02:44:27.715Z,7.10
2022-10-09T02:46:54.560Z,7.00
2022-10-09T02:49:21.847Z,7.00
2022-10-09T02:51:48.739Z,7.00
2022-10-09T02:54:15.530Z,7.00
2022-10-09T02:56:42.266Z,6.90
2022-10-09T02:59:09.081Z,6.90
2022-10-09T03:01:36.439Z,6.90
2022-10-09T03:04:04.045Z,6.90
2022-10-09T03:06:30.979Z,7.00
2022-10-09T03:08:57.879Z,7.00
2022-10-09T03:11:26.031Z,6.90
2022-10-09T03:13:54.492Z,6.90
2022-10-09T03:16:26.043Z,7.00
2022-10-09T03:18:54.140Z,6.80
2022-10-09T03:21:27.382Z,6.80
2022-10-09T03:23:57.715Z,6.90
2022-10-09T03:26:27.401Z,6.80
2022-10-09T03:28:56.045Z,6.80
2022-10-09T03:34:13.624Z,6.50
2022-10-09T03:36:42.211Z,6.70
2022-10-09T03:39:09.298Z,6.60
2022-10-09T03:41:36.052Z,6.60
2022-10-09T03:44:02.838Z,6.50
2022-10-09T03:46:29.642Z,6.60
2022-10-09T03:48:56.647Z,6.60
2022-10-09T03:51:23.376Z,6.60
2022-10-09T03:53:50.129Z,6.50
2022-10-09T03:56:16.884Z,6.50
2022-10-09T03:58:43.590Z,6.50
2022-10-09T04:01:10.448Z,6.50
2022-10-09T04:03:37.532Z,6.50
2022-10-09T04:06:04.492Z,6.50
2022-10-09T04:08:31.224Z,6.50
2022-10-09T04:10:59.469Z,6.50
2022-10-09T04:13:26.397Z,6.50
2022-10-09T04:15:54.133Z,6.50
2022-10-09T04:18:21.320Z,6.50
2022-10-09T04:20:57.078Z,6.40
2022-10-09T04:23:27.639Z,6.40
2022-10-09T04:25:58.268Z,6.40
2022-10-09T04:28:29.773Z,6.50
2022-10-09T04:30:58.283Z,6.50
2022-10-09T04:33:26.691Z,6.40
2022-10-09T04:35:55.828Z,6.40
2022-10-09T04:38:24.439Z,6.40
2022-10-09T04:40:57.756Z,6.30
2022-10-09T04:43:25.183Z,6.30
2022-10-09T04:45:52.104Z,6.30
2022-10-09T04:48:19.736Z,6.30
2022-10-09T04:50:46.605Z,6.30
2022-10-09T04:53:14.451Z,6.30
2022-10-09T04:55:43.069Z,6.40
2022-10-09T04:58:12.035Z,6.40
2022-10-09T05:00:45.386Z,6.40
2022-10-09T05:03:13.077Z,6.40
2022-10-09T05:05:39.842Z,6.40
2022-10-09T05:08:06.727Z,6.40
2022-10-09T05:10:34.054Z,6.40
2022-10-09T05:13:01.519Z,6.40
2022-10-09T05:15:28.331Z,6.50
2022-10-09T05:17:55.109Z,6.40
2022-10-09T05:20:22.044Z,6.40
2022-10-09T05:22:49.313Z,6.40
2022-10-09T05:25:16.374Z,6.40
2022-10-09T05:27:43.198Z,6.40
2022-10-09T05:30:10.976Z,6.40
2022-10-09T05:32:37.728Z,6.40
2022-10-09T05:35:04.800Z,6.50
2022-10-09T05:37:31.768Z,6.50
2022-10-09T05:39:58.506Z,6.50
2022-10-09T05:42:25.267Z,6.50
2022-10-09T05:44:51.977Z,6.50
2022-10-09T05:47:19.707Z,6.50
2022-10-09T05:49:46.852Z,6.50
2022-10-09T05:52:13.719Z,6.40
2022-10-09T05:54:41.843Z,6.40
2022-10-09T05:57:09.733Z,6.40
2022-10-09T05:59:36.455Z,6.30
2022-10-09T06:02:03.911Z,6.30
2022-10-09T06:04:30.773Z,6.30
2022-10-09T06:06:57.572Z,6.40
2022-10-09T06:09:26.006Z,6.40
2022-10-09T06:11:55.064Z,6.40
2022-10-09T06:14:23.026Z,6.40
2022-10-09T06:16:50.788Z,6.40
2022-10-09T06:19:19.886Z,6.50
2022-10-09T06:21:47.675Z,6.50
2022-10-09T06:24:27.021Z,6.50
2022-10-09T06:26:55.427Z,6.50
2022-10-09T06:29:22.613Z,6.50
2022-10-09T06:31:49.501Z,6.60
2022-10-09T06:34:16.596Z,6.70
2022-10-09T06:36:43.373Z,6.70
2022-10-09T06:39:10.899Z,6.80
2022-10-09T06:41:37.804Z,6.80
2022-10-09T06:44:22.781Z,6.90
2022-10-09T06:46:51.189Z,6.90
2022-10-09T06:49:17.915Z,6.90
2022-10-09T06:51:44.651Z,7.00
2022-10-09T06:54:15.041Z,7.10
2022-10-09T06:56:42.047Z,7.10
2022-10-09T06:59:11.075Z,7.30
2022-10-09T07:01:38.077Z,7.30
2022-10-09T07:04:14.175Z,7.40
2022-10-09T07:06:44.759Z,7.40
2022-10-09T07:09:14.485Z,7.50
2022-10-09T07:11:45.798Z,7.50
2022-10-09T07:14:15.696Z,7.70
2022-10-09T07:16:46.196Z,7.70
2022-10-09T07:19:14.994Z,7.80
2022-10-09T07:21:45.444Z,7.90
2022-10-09T07:24:13.383Z,8.10
2022-10-09T07:26:46.330Z,8.20
2022-10-09T07:29:17.700Z,8.30
2022-10-09T07:31:45.421Z,8.30
2022-10-09T07:34:12.355Z,8.40
2022-10-09T07:36:39.421Z,8.50
2022-10-09T07:39:06.623Z,8.60
2022-10-09T07:41:33.847Z,8.70
2022-10-09T07:44:01.071Z,8.80
2022-10-09T07:46:33.275Z,8.80
2022-10-09T07:49:01.651Z,8.90
2022-10-09T07:51:30.683Z,9.00
2022-10-09T07:53:59.924Z,9.10
2022-10-09T07:56:30.368Z,9.20
2022-10-09T07:59:00.831Z,9.30
2022-10-09T08:01:29.627Z,9.40
2022-10-09T08:03:58.444Z,9.50
2022-10-09T08:06:25.802Z,9.60
2022-10-09T08:08:55.469Z,9.70
2022-10-09T08:11:24.697Z,9.70
2022-10-09T08:13:53.089Z,9.80
2022-10-09T08:16:22.167Z,9.90
2022-10-09T08:18:49.262Z,9.90
2022-10-09T08:21:19.011Z,10.10
2022-10-09T08:23:46.264Z,10.20
2022-10-09T08:26:19.766Z,10.20
2022-10-09T08:29:02.627Z,10.30
2022-10-09T08:31:31.634Z,10.40
2022-10-09T08:34:01.623Z,10.50
2022-10-09T08:36:29.008Z,10.60
2022-10-09T08:38:56.012Z,10.70
2022-10-09T08:41:47.373Z,10.80
2022-10-09T08:44:25.056Z,10.90
2022-10-09T08:47:03.850Z,11.00
2022-10-09T08:49:55.249Z,11.10
2022-10-09T08:52:57.097Z,11.20
2022-10-09T08:55:46.573Z,11.30
2022-10-09T08:58:20.186Z,11.30
2022-10-09T09:00:54.588Z,11.50
2022-10-09T09:03:50.175Z,11.60
2022-10-09T09:07:10.066Z,11.60
2022-10-09T09:09:43.063Z,11.80
2022-10-09T09:12:42.879Z,11.90
2022-10-09T09:15:28.286Z,12.10
2022-10-09T09:18:03.827Z,12.10
2022-10-09T09:21:13.888Z,12.30
2022-10-09T09:23:46.656Z,12.30
2022-10-09T09:26:22.223Z,12.60
2022-10-09T09:28:56.430Z,12.80
2022-10-09T09:31:29.822Z,12.90
2022-10-09T09:34:13.866Z,12.90
2022-10-09T09:36:54.797Z,13.10
2022-10-09T09:42:18.440Z,13.20
2022-10-09T09:45:00.075Z,13.40
2022-10-09T09:47:38.571Z,13.60
2022-10-09T09:50:15.066Z,13.70
2022-10-09T09:52:56.141Z,13.80
2022-10-09T09:55:30.122Z,13.90
2022-10-09T09:58:12.948Z,14.00
2022-10-09T10:00:39.744Z,14.10
2022-10-09T10:03:16.223Z,14.20
2022-10-09T10:05:45.097Z,14.10
2022-10-09T10:08:20.559Z,14.20
2022-10-09T10:10:48.494Z,14.20
2022-10-09T10:13:27.143Z,14.30
2022-10-09T10:15:57.182Z,14.20
2022-10-09T10:18:28.640Z,14.30
2022-10-09T10:21:11.951Z,14.30
2022-10-09T10:23:41.362Z,14.30
2022-10-09T10:26:30.468Z,14.40
2022-10-09T10:29:18.403Z,14.40
2022-10-09T10:31:59.694Z,14.30
2022-10-09T10:34:49.127Z,14.30
2022-10-09T10:38:00.853Z,14.40
2022-10-09T10:40:42.455Z,14.40
2022-10-09T10:43:39.984Z,14.50
2022-10-09T10:46:23.453Z,14.60
2022-10-09T10:48:51.679Z,14.60
2022-10-09T10:51:48.970Z,14.60
2022-10-09T10:54:36.277Z,14.50
2022-10-09T10:57:38.631Z,14.60
2022-10-09T11:00:11.397Z,14.70
2022-10-09T11:03:09.346Z,14.70
2022-10-09T11:05:59.282Z,14.90
2022-10-09T11:08:44.944Z,14.90
2022-10-09T11:11:33.473Z,14.90
2022-10-09T11:14:14.516Z,14.80
2022-10-09T11:17:30.755Z,14.80
2022-10-09T11:20:41.580Z,14.80
2022-10-09T11:23:46.528Z,14.80
2022-10-09T11:26:36.590Z,14.90
2022-10-09T11:29:15.140Z,15.00
2022-10-09T11:32:02.949Z,14.90
2022-10-09T11:34:40.276Z,15.00
2022-10-09T11:37:20.847Z,15.20
2022-10-09T11:39:47.867Z,15.30
2022-10-09T11:42:21.567Z,15.30
2022-10-09T11:45:17.056Z,15.40
2022-10-09T11:48:18.476Z,15.40
2022-10-09T11:51:04.518Z,15.40
2022-10-09T11:53:34.473Z,15.50
2022-10-09T11:56:08.378Z,15.60
2022-10-09T11:58:35.817Z,15.70
2022-10-09T12:01:23.105Z,15.80
2022-10-09T12:04:27.782Z,15.80
2022-10-09T12:07:09.245Z,15.70
2022-10-09T12:09:44.328Z,15.80
2022-10-09T12:12:30.256Z,15.80
2022-10-09T12:14:58.446Z,15.80
2022-10-09T12:17:25.079Z,15.90
2022-10-09T12:20:08.461Z,15.90
2022-10-09T12:22:42.525Z,15.90
2022-10-09T12:25:28.614Z,15.90
2022-10-09T12:27:59.113Z,15.90
2022-10-09T12:30:50.043Z,16.10
2022-10-09T12:33:27.828Z,15.90
2022-10-09T12:36:29.590Z,16.10
2022-10-09T12:38:57.236Z,16.00
2022-10-09T12:41:31.954Z,16.10
2022-10-09T12:43:59.555Z,16.10
2022-10-09T12:46:36.984Z,16.00
2022-10-09T12:49:18.612Z,16.00
2022-10-09T12:51:56.113Z,16.10
2022-10-09T12:54:26.206Z,16.20
2022-10-09T12:56:56.411Z,16.30
2022-10-09T12:59:26.455Z,16.20
2022-10-09T13:01:58.541Z,16.20
2022-10-09T13:04:33.652Z,16.20
2022-10-09T13:07:07.115Z,16.20
2022-10-09T13:09:40.548Z,16.20
2022-10-09T13:12:24.208Z,16.20
2022-10-09T13:15:07.885Z,16.20
2022-10-09T13:17:39.274Z,16.10
2022-10-09T13:20:12.363Z,16.20
2022-10-09T13:22:39.745Z,16.10
2022-10-09T13:25:08.670Z,16.10
2022-10-09T13:27:39.487Z,16.10
2022-10-09T13:30:07.711Z,16.20
2022-10-09T13:32:34.463Z,16.20
2022-10-09T13:35:01.185Z,16.10
2022-10-09T13:37:28.005Z,16.00
2022-10-09T13:39:58.136Z,16.00
2022-10-09T13:42:36.973Z,16.00
2022-10-09T13:45:07.455Z,16.10
2022-10-09T13:47:34.213Z,16.10
2022-10-09T13:50:00.920Z,16.10
2022-10-09T13:52:27.677Z,16.10
2022-10-09T13:54:54.483Z,16.10
2022-10-09T13:57:21.210Z,16.00
2022-10-09T13:59:47.991Z,16.00
2022-10-09T14:02:14.993Z,16.10
2022-10-09T14:04:41.793Z,16.10
2022-10-09T14:07:08.923Z,16.10
2022-10-09T14:09:35.824Z,16.10
2022-10-09T14:12:02.784Z,16.10
2022-10-09T14:14:29.605Z,16.10
2022-10-09T14:16:56.371Z,16.00
2022-10-09T14:19:27.663Z,16.10
2022-10-09T14:21:58.287Z,16.00
2022-10-09T14:24:25.544Z,16.10
2022-10-09T14:26:52.550Z,16.10
2022-10-09T14:29:19.668Z,16.10
2022-10-09T14:31:48.995Z,16.10
2022-10-09T14:34:15.743Z,16.00
2022-10-09T14:36:42.549Z,16.00
2022-10-09T14:39:09.671Z,16.10
2022-10-09T14:41:37.900Z,16.10
2022-10-09T14:44:05.639Z,16.10
2022-10-09T14:46:33.863Z,16.00
2022-10-09T14:49:07.079Z,16.10
2022-10-09T14:51:37.451Z,16.10
2022-10-09T14:54:05.707Z,16.20
2022-10-09T14:56:33.373Z,16.10
2022-10-09T14:59:00.982Z,16.10
2022-10-09T15:01:29.369Z,16.00
2022-10-09T15:03:56.514Z,16.10
2022-10-09T15:06:27.664Z,16.00
2022-10-09T15:09:03.096Z,16.00
2022-10-09T15:11:34.296Z,16.00
2022-10-09T15:14:01.656Z,16.00
2022-10-09T15:16:28.377Z,16.00
2022-10-09T15:18:56.347Z,16.00
2022-10-09T15:21:27.323Z,16.10
2022-10-09T15:23:56.760Z,16.00
2022-10-09T15:26:26.001Z,15.90
2022-10-09T15:28:53.492Z,15.90
2022-10-09T15:31:31.012Z,15.90
2022-10-09T15:34:01.000Z,15.90
2022-10-09T15:36:30.063Z,15.90
2022-10-09T15:38:56.940Z,15.90
2022-10-09T15:41:28.848Z,16.00
2022-10-09T15:43:59.236Z,15.90
2022-10-09T15:46:27.389Z,15.80
2022-10-09T15:48:54.883Z,15.80
2022-10-09T15:51:22.935Z,15.80
2022-10-09T15:53:51.767Z,15.80
2022-10-09T15:56:24.261Z,15.70
2022-10-09T15:58:52.890Z,15.70
2022-10-09T16:01:21.597Z,15.60
2022-10-09T16:03:49.320Z,15.60
2022-10-09T16:06:20.791Z,15.60
2022-10-09T16:08:48.149Z,15.60
2022-10-09T16:11:20.236Z,15.50
2022-10-09T16:13:50.208Z,15.40
2022-10-09T16:16:21.213Z,15.40
2022-10-09T16:18:49.028Z,15.30
2022-10-09T16:21:26.987Z,15.30
2022-10-09T16:23:58.389Z,15.30
2022-10-09T16:26:28.349Z,15.30
2022-10-09T16:28:55.238Z,15.20
2022-10-09T16:31:31.873Z,15.20
2022-10-09T16:33:59.087Z,15.10
2022-10-09T16:36:25.918Z,15.00
2022-10-09T16:38:53.027Z,14.90
2022-10-09T16:41:22.880Z,14.90
2022-10-09T16:43:53.378Z,14.90
2022-10-09T16:49:02.632Z,14.80
2022-10-09T16:51:35.795Z,14.60
2022-10-09T16:54:05.609Z,14.60
2022-10-09T16:56:37.604Z,14.40
2022-10-09T16:59:10.325Z,14.40
2022-10-09T17:01:42.284Z,14.40
2022-10-09T17:04:10.051Z,14.20
2022-10-09T17:06:39.184Z,14.10
2022-10-09T17:09:13.671Z,14.00
2022-10-09T17:11:42.492Z,13.90
2022-10-09T17:14:09.299Z,13.80
2022-10-09T17:16:40.272Z,13.70
2022-10-09T17:19:08.103Z,13.80
2022-10-09T17:21:35.575Z,13.70
2022-10-09T17:24:05.083Z,13.50
2022-10-09T17:26:32.155Z,13.50
2022-10-09T17:29:00.371Z,13.40
2022-10-09T17:31:28.230Z,13.30
2022-10-09T17:34:01.673Z,13.30
2022-10-09T17:36:33.259Z,13.20
2022-10-09T17:39:00.142Z,13.10
2022-10-09T17:41:29.134Z,13.10
2022-10-09T17:43:57.391Z,13.00
2022-10-09T17:46:26.769Z,12.90
2022-10-09T17:48:56.613Z,13.00
2022-10-09T17:51:36.749Z,12.90
2022-10-09T17:54:14.302Z,12.90
2022-10-09T17:56:41.766Z,12.90
2022-10-09T17:59:09.358Z,12.80
2022-10-09T18:01:36.884Z,12.70
2022-10-09T18:04:07.629Z,12.60
2022-10-09T18:06:35.867Z,12.40
2022-10-09T18:09:04.067Z,12.40
2022-10-09T18:11:30.939Z,12.30
2022-10-09T18:13:57.941Z,12.20
2022-10-09T18:16:35.977Z,12.10
2022-10-09T18:19:12.545Z,12.00
2022-10-09T18:21:48.526Z,12.00
2022-10-09T18:24:16.526Z,11.90
2022-10-09T18:26:44.508Z,11.90
2022-10-09T18:29:11.351Z,11.70
2022-10-09T18:31:38.569Z,11.80
2022-10-09T18:34:05.398Z,11.70
2022-10-09T18:36:34.233Z,11.60
2022-10-09T18:39:07.023Z,11.50
2022-10-09T18:41:33.980Z,11.50
2022-10-09T18:44:01.945Z,11.40
2022-10-09T18:46:37.619Z,11.40
2022-10-09T18:49:09.886Z,11.30
2022-10-09T18:51:39.893Z,11.20
2022-10-09T18:54:08.039Z,11.10
2022-10-09T18:56:36.545Z,11.10
2022-10-09T18:59:10.329Z,11.10
2022-10-09T19:01:37.140Z,11.10
2022-10-09T19:04:04.481Z,11.00
2022-10-09T19:06:31.359Z,11.00
2022-10-09T19:09:00.658Z,10.90
2022-10-09T19:11:30.467Z,10.80
2022-10-09T19:14:01.903Z,10.80
2022-10-09T19:16:32.812Z,10.70
2022-10-09T19:18:59.994Z,10.60
2022-10-09T19:21:27.341Z,10.60
2022-10-09T19:23:54.752Z,10.60
2022-10-09T19:26:23.083Z,10.60
2022-10-09T19:28:49.961Z,10.50
2022-10-09T19:31:16.967Z,10.40
2022-10-09T19:33:44.050Z,10.40
2022-10-09T19:36:13.615Z,10.30
2022-10-09T19:38:41.470Z,10.30
2022-10-09T19:41:14.983Z,10.30
2022-10-09T19:43:42.728Z,10.30
2022-10-09T19:46:22.656Z,10.20
2022-10-09T19:48:50.761Z,10.10
2022-10-09T19:51:25.144Z,10.10
2022-10-09T19:53:53.404Z,10.00
2022-10-09T19:56:27.594Z,10.00
2022-10-09T19:58:56.395Z,9.90
2022-10-09T20:01:26.510Z,9.80
2022-10-09T20:04:02.503Z,9.80
2022-10-09T20:06:29.675Z,9.80
2022-10-09T20:08:56.804Z,9.90
2022-10-09T20:11:26.105Z,9.80
2022-10-09T20:13:55.945Z,9.80
2022-10-09T20:16:25.124Z,9.90
2022-10-09T20:18:54.126Z,9.80
2022-10-09T20:21:20.922Z,9.80
2022-10-09T20:23:48.331Z,9.80
2022-10-09T20:26:18.995Z,9.90
2022-10-09T20:28:47.820Z,10.00
2022-10-09T20:31:20.521Z,10.10
2022-10-09T20:33:49.955Z,10.10
2022-10-09T20:36:28.557Z,10.10
2022-10-09T20:39:00.923Z,10.20
2022-10-09T20:41:30.275Z,10.20
2022-10-09T20:44:01.236Z,10.20
2022-10-09T20:46:31.956Z,10.30
2022-10-09T20:48:59.402Z,10.40
2022-10-09T20:51:26.225Z,10.40
2022-10-09T20:53:56.744Z,10.50
2022-10-09T20:56:26.891Z,10.50
2022-10-09T20:58:54.963Z,10.50
2022-10-09T21:01:22.861Z,10.40
2022-10-09T21:03:50.050Z,10.40
2022-10-09T21:06:20.685Z,10.40
2022-10-09T21:08:48.191Z,10.40
2022-10-09T21:11:17.217Z,10.40
2022-10-09T21:13:45.720Z,10.50
2022-10-09T21:16:18.661Z,10.40
2022-10-09T21:18:46.088Z,10.40
2022-10-09T21:21:17.366Z,10.30
2022-10-09T21:23:45.375Z,10.20
2022-10-09T21:26:17.478Z,10.30
2022-10-09T21:28:45.548Z,10.30
2022-10-09T21:31:20.091Z,10.30
2022-10-09T21:33:47.434Z,10.30
2022-10-09T21:36:34.155Z,10.20
2022-10-09T21:39:01.099Z,10.10
2022-10-09T21:41:27.880Z,10.10
2022-10-09T21:43:54.870Z,10.00
2022-10-09T21:46:22.277Z,10.00
2022-10-09T21:48:49.010Z,10.00
2022-10-09T21:51:15.833Z,9.90
2022-10-09T21:53:42.592Z,9.90
2022-10-09T21:56:09.868Z,9.90
2022-10-09T21:58:38.269Z,9.90
2022-10-09T22:01:06.002Z,9.90
2022-10-09T22:03:35.913Z,9.80
2022-10-09T22:06:14.014Z,9.80
2022-10-09T22:08:43.565Z,9.70
2022-10-09T22:11:11.457Z,9.70
2022-10-09T22:13:39.131Z,9.70
2022-10-09T22:16:08.313Z,9.70
2022-10-09T22:18:35.737Z,9.70
2022-10-09T22:21:12.802Z,9.70
2022-10-09T22:23:40.320Z,9.60
2022-10-09T22:26:13.335Z,9.60
2022-10-09T22:28:40.519Z,9.60
2022-10-09T22:31:13.085Z,9.50
2022-10-09T22:33:40.351Z,9.60
2022-10-09T22:36:17.588Z,9.60
2022-10-09T22:38:45.489Z,9.60
2022-10-09T22:41:21.493Z,9.50
2022-10-09T22:43:52.032Z,9.60
2022-10-09T22:46:32.188Z,9.60
2022-10-09T22:48:59.579Z,9.50
2022-10-09T22:51:28.692Z,9.40
2022-10-09T22:53:57.603Z,9.50
2022-10-09T22:56:30.883Z,9.50
2022-10-09T22:58:58.389Z,9.40
2022-10-09T23:01:39.093Z,9.40
2022-10-09T23:04:11.406Z,9.40
2022-10-09T23:06:39.111Z,9.30
2022-10-09T23:09:08.587Z,9.40
2022-10-09T23:11:35.691Z,9.40
2022-10-09T23:14:03.452Z,9.40
2022-10-09T23:16:31.751Z,9.60
2022-10-09T23:19:06.149Z,9.60
2022-10-09T23:21:36.100Z,9.50
2022-10-09T23:24:03.425Z,9.60
2022-10-09T23:26:32.914Z,9.90
2022-10-09T23:29:04.034Z,10.00
2022-10-09T23:31:31.035Z,10.10
2022-10-09T23:33:58.273Z,10.20
2022-10-09T23:36:28.672Z,10.20
2022-10-09T23:38:57.315Z,10.20
2022-10-09T23:41:27.421Z,10.20
2022-10-09T23:43:55.500Z,10.10
2022-10-09T23:46:26.371Z,10.20
2022-10-09T23:48:54.810Z,10.10
2022-10-09T23:51:23.946Z,10.20
2022-10-09T23:53:51.404Z,10.30
2022-10-09T23:56:29.745Z,10.10
2022-10-09T23:58:58.572Z,10.00
